createdAt,value
2023-05-10T00:02:41.610Z,3.80
2023-05-10T00:07:46.852Z,3.80
2023-05-10T00:12:49.480Z,4.10
2023-05-10T00:17:52.108Z,3.20
2023-05-10T00:22:54.703Z,3.60
2023-05-10T00:27:58.309Z,3.20
2023-05-10T00:33:01.381Z,3.60
2023-05-10T00:38:04.021Z,3.50
2023-05-10T00:43:06.641Z,3.80
2023-05-10T00:48:09.665Z,3.40
2023-05-10T00:53:13.116Z,3.90
2023-05-10T00:58:15.954Z,3.80
2023-05-10T01:03:18.558Z,3.40
2023-05-10T01:08:21.833Z,4.00
2023-05-10T01:13:31.717Z,3.90
2023-05-10T01:18:37.412Z,3.60
2023-05-10T01:23:45.928Z,4.30
2023-05-10T01:28:54.272Z,4.50
2023-05-10T01:34:01.577Z,3.60
2023-05-10T01:39:30.710Z,4.30
2023-05-10T01:44:54.920Z,3.60
2023-05-10T01:50:02.367Z,3.30
2023-05-10T01:55:12.352Z,4.10
2023-05-10T02:00:17.328Z,3.80
2023-05-10T02:05:22.453Z,3.90
2023-05-10T02:10:25.045Z,4.30
2023-05-10T02:15:29.416Z,4.10
2023-05-10T02:20:32.865Z,3.90
2023-05-10T02:25:37.007Z,4.10
2023-05-10T02:30:40.310Z,4.30
2023-05-10T02:35:43.348Z,3.40
2023-05-10T02:40:48.496Z,3.80
2023-05-10T02:45:51.090Z,3.90
2023-05-10T02:50:57.051Z,3.90
2023-05-10T02:56:08.001Z,4.30
2023-05-10T03:01:11.003Z,4.10
2023-05-10T03:06:13.602Z,4.50
2023-05-10T03:11:33.106Z,4.90
2023-05-10T03:16:44.986Z,4.00
2023-05-10T03:21:52.436Z,4.80
2023-05-10T03:26:57.998Z,3.80
2023-05-10T03:32:01.217Z,4.00
2023-05-10T03:37:03.955Z,4.30
2023-05-10T03:42:06.643Z,4.30
2023-05-10T03:47:09.331Z,3.20
2023-05-10T03:52:12.016Z,3.80
2023-05-10T03:57:14.521Z,4.20
2023-05-10T04:02:17.198Z,4.40
2023-05-10T04:07:19.886Z,4.40
2023-05-10T04:12:22.718Z,4.50
2023-05-10T04:17:25.289Z,4.60
2023-05-10T04:22:29.999Z,4.30
2023-05-10T04:27:32.685Z,4.50
2023-05-10T04:32:35.317Z,4.50
2023-05-10T04:37:37.925Z,4.30
2023-05-10T04:42:44.995Z,4.50
2023-05-10T04:47:47.584Z,3.90
2023-05-10T04:52:50.122Z,5.00
2023-05-10T04:57:52.870Z,5.50
2023-05-10T05:02:55.523Z,4.20
2023-05-10T05:07:58.439Z,4.60
2023-05-10T05:13:01.108Z,4.40
2023-05-10T05:18:03.872Z,3.80
2023-05-10T05:23:06.538Z,3.80
2023-05-10T05:28:09.321Z,3.60
2023-05-10T05:33:12.997Z,3.90
2023-05-10T05:38:15.605Z,3.50
2023-05-10T05:43:18.214Z,3.80
2023-05-10T05:48:21.217Z,3.20
2023-05-10T05:53:24.597Z,3.20
2023-05-10T05:58:27.861Z,3.00
2023-05-10T06:03:30.526Z,2.90
2023-05-10T06:08:35.852Z,2.80
2023-05-10T06:13:38.467Z,2.50
2023-05-10T06:18:41.332Z,2.60
2023-05-10T06:23:44.761Z,2.50
2023-05-10T06:28:47.350Z,2.80
2023-05-10T06:33:49.997Z,2.50
2023-05-10T06:38:52.754Z,2.80
2023-05-10T06:43:55.228Z,2.90
2023-05-10T06:48:57.837Z,2.40
2023-05-10T06:54:01.041Z,2.50
2023-05-10T06:59:03.939Z,2.60
2023-05-10T07:04:08.426Z,2.30
2023-05-10T07:09:11.958Z,2.20
2023-05-10T07:14:14.547Z,2.20
2023-05-10T07:19:17.084Z,1.90
2023-05-10T07:24:19.742Z,2.10
2023-05-10T07:29:22.275Z,2.20
2023-05-10T07:34:24.856Z,2.40
2023-05-10T07:39:28.623Z,2.30
2023-05-10T07:44:31.249Z,2.60
2023-05-10T07:49:34.028Z,2.30
2023-05-10T07:54:36.701Z,2.10
2023-05-10T07:59:39.212Z,2.40
2023-05-10T08:04:42.005Z,2.00
2023-05-10T08:09:44.638Z,2.60
2023-05-10T08:14:47.217Z,3.50
2023-05-10T08:19:49.756Z,3.20
2023-05-10T08:24:52.347Z,2.60
2023-05-10T08:29:54.896Z,2.40
2023-05-10T08:34:57.441Z,2.40
2023-05-10T08:40:00.015Z,2.30
2023-05-10T08:45:04.217Z,2.70
2023-05-10T08:50:07.964Z,2.90
2023-05-10T08:55:10.583Z,2.40
2023-05-10T09:00:14.330Z,2.50
2023-05-10T09:05:18.856Z,2.00
2023-05-10T09:10:22.671Z,2.60
2023-05-10T09:15:25.501Z,2.40
2023-05-10T09:20:28.120Z,2.40
2023-05-10T09:25:30.798Z,2.70
2023-05-10T09:30:33.719Z,2.60
2023-05-10T09:35:37.030Z,2.40
2023-05-10T09:40:39.643Z,2.70
2023-05-10T09:45:42.314Z,3.00
2023-05-10T09:50:44.954Z,2.50
2023-05-10T09:55:51.363Z,2.30
2023-05-10T10:00:54.669Z,2.90
2023-05-10T10:05:57.860Z,2.50
2023-05-10T10:11:00.566Z,2.50
2023-05-10T10:16:03.617Z,2.70
2023-05-10T10:21:09.070Z,2.70
2023-05-10T10:26:12.725Z,2.30
2023-05-10T10:31:29.162Z,3.00
2023-05-10T10:36:34.188Z,2.70
2023-05-10T10:41:42.842Z,2.30
2023-05-10T10:47:03.373Z,2.50
2023-05-10T10:52:37.882Z,3.00
2023-05-10T10:57:48.085Z,2.40
2023-05-10T11:02:57.898Z,2.70
2023-05-10T11:13:11.069Z,2.30
2023-05-10T11:18:21.637Z,2.60
2023-05-10T11:23:24.661Z,2.50
2023-05-10T11:28:28.113Z,2.30
2023-05-10T11:33:30.855Z,2.90
2023-05-10T11:38:35.117Z,2.30
2023-05-10T11:43:39.246Z,2.20
2023-05-10T11:48:42.928Z,2.20
2023-05-10T11:53:45.477Z,2.40
2023-05-10T11:58:55.064Z,2.40
2023-05-10T12:04:02.294Z,2.50
2023-05-10T12:09:09.014Z,2.30
2023-05-10T12:14:12.171Z,2.10
2023-05-10T12:19:20.799Z,2.20
2023-05-10T12:24:26.307Z,2.40
2023-05-10T12:29:31.492Z,2.40
2023-05-10T12:34:36.875Z,2.20
2023-05-10T12:39:45.569Z,2.20
2023-05-10T12:44:48.155Z,2.30
2023-05-10T12:49:52.069Z,2.10
2023-05-10T12:54:54.965Z,2.30
2023-05-10T12:59:59.016Z,2.20
2023-05-10T13:05:03.150Z,2.40
2023-05-10T13:10:07.295Z,2.40
2023-05-10T13:15:10.850Z,1.90
2023-05-10T13:20:13.451Z,2.60
2023-05-10T13:25:16.034Z,2.00
2023-05-10T13:30:18.872Z,2.40
2023-05-10T13:35:22.030Z,1.80
2023-05-10T13:40:24.635Z,2.10
2023-05-10T13:45:27.303Z,2.20
2023-05-10T13:50:31.056Z,2.00
2023-05-10T13:56:22.424Z,2.30
2023-05-10T14:01:25.277Z,2.20
2023-05-10T14:06:28.220Z,2.30
2023-05-10T14:11:31.251Z,2.10
2023-05-10T14:16:34.397Z,2.10
2023-05-10T14:21:37.449Z,2.50
2023-05-10T14:26:40.036Z,2.10
2023-05-10T14:31:42.681Z,1.90
2023-05-10T14:36:45.271Z,2.10
2023-05-10T14:41:48.262Z,2.30
2023-05-10T14:46:50.893Z,2.20
2023-05-10T14:51:53.704Z,1.90
2023-05-10T14:56:56.562Z,2.40
2023-05-10T15:02:00.637Z,2.00
2023-05-10T15:07:04.081Z,2.10
2023-05-10T15:12:07.089Z,2.10
2023-05-10T15:17:11.095Z,2.40
2023-05-10T15:22:13.658Z,2.00
2023-05-10T15:27:16.556Z,2.10
2023-05-10T15:32:19.271Z,2.00
2023-05-10T15:37:23.875Z,2.00
2023-05-10T15:42:26.448Z,1.90
2023-05-10T15:47:32.115Z,2.20
2023-05-10T15:52:36.056Z,2.00
2023-05-10T15:57:40.466Z,2.00
2023-05-10T16:02:43.340Z,2.40
2023-05-10T16:07:46.761Z,2.10
2023-05-10T16:12:49.401Z,1.90
2023-05-10T16:17:52.088Z,2.00
2023-05-10T16:22:54.689Z,2.10
2023-05-10T16:27:57.364Z,2.10
2023-05-10T16:33:01.354Z,2.80
2023-05-10T16:38:03.941Z,2.30
2023-05-10T16:43:06.542Z,2.40
2023-05-10T16:48:12.021Z,2.40
2023-05-10T16:53:14.633Z,2.40
2023-05-10T16:58:17.183Z,2.30
2023-05-10T17:03:19.865Z,2.40
2023-05-10T17:08:22.560Z,2.70
2023-05-10T17:13:25.160Z,2.40
2023-05-10T17:18:27.804Z,3.00
2023-05-10T17:23:30.389Z,3.00
2023-05-10T17:28:33.147Z,11.30
2023-05-10T17:33:35.713Z,16.80
2023-05-10T17:38:38.333Z,12.60
2023-05-10T17:43:41.897Z,5.00
2023-05-10T17:48:44.428Z,3.00
2023-05-10T17:53:46.985Z,2.80
2023-05-10T17:58:50.526Z,3.30
2023-05-10T18:03:53.439Z,3.20
2023-05-10T18:08:56.207Z,3.00
2023-05-10T18:13:58.809Z,3.10
2023-05-10T18:19:01.482Z,2.80
2023-05-10T18:24:05.730Z,2.80
2023-05-10T18:29:08.618Z,2.70
2023-05-10T18:34:11.184Z,2.50
2023-05-10T18:39:14.106Z,2.60
2023-05-10T18:44:16.681Z,3.00
2023-05-10T18:49:19.226Z,3.00
2023-05-10T18:54:21.805Z,2.60
2023-05-10T18:59:24.974Z,3.20
2023-05-10T19:04:28.281Z,2.60
2023-05-10T19:09:30.831Z,2.50
2023-05-10T19:14:33.460Z,2.60
2023-05-10T19:19:37.647Z,2.90
2023-05-10T19:24:40.443Z,3.20
2023-05-10T19:29:42.981Z,2.60
2023-05-10T19:34:45.663Z,2.70
2023-05-10T19:39:48.244Z,2.60
2023-05-10T19:44:50.947Z,2.10
2023-05-10T19:49:53.604Z,3.10
2023-05-10T19:54:56.250Z,3.30
2023-05-10T19:59:58.779Z,2.60
2023-05-10T20:05:01.710Z,2.90
2023-05-10T20:10:04.493Z,3.00
2023-05-10T20:15:07.971Z,2.90
2023-05-10T20:20:12.233Z,3.30
2023-05-10T20:25:16.150Z,3.40
2023-05-10T20:30:19.465Z,3.60
2023-05-10T20:35:22.412Z,3.90
2023-05-10T20:40:24.943Z,3.80
2023-05-10T20:45:27.623Z,4.10
2023-05-10T20:50:30.333Z,4.80
2023-05-10T20:55:32.880Z,4.10
2023-05-10T21:00:35.528Z,4.00
2023-05-10T21:05:38.035Z,4.60
2023-05-10T21:10:40.625Z,4.70
2023-05-10T21:15:43.206Z,4.00
2023-05-10T21:20:45.740Z,3.90
2023-05-10T21:25:48.490Z,3.90
2023-05-10T21:30:51.757Z,3.80
2023-05-10T21:35:54.324Z,3.80
2023-05-10T21:40:56.989Z,3.50
2023-05-10T21:45:59.516Z,3.30
2023-05-10T21:51:02.240Z,4.00
2023-05-10T21:56:05.873Z,4.40
2023-05-10T22:01:08.587Z,5.60
2023-05-10T22:06:11.225Z,6.50
2023-05-10T22:11:16.543Z,7.10
2023-05-10T22:16:19.129Z,7.00
2023-05-10T22:21:21.845Z,5.20
2023-05-10T22:26:26.011Z,4.10
2023-05-10T22:31:29.075Z,4.80
2023-05-10T22:36:32.313Z,4.50
2023-05-10T22:41:34.829Z,4.50
2023-05-10T22:46:38.623Z,5.50
2023-05-10T22:51:41.168Z,4.70
2023-05-10T22:56:43.812Z,5.00
2023-05-10T23:01:46.368Z,4.30
2023-05-10T23:06:48.964Z,4.50
2023-05-10T23:11:51.467Z,4.60
2023-05-10T23:16:54.276Z,4.40
2023-05-10T23:21:56.847Z,4.30
2023-05-10T23:26:59.440Z,4.00
2023-05-10T23:32:02.023Z,4.10
2023-05-10T23:37:04.598Z,4.30
2023-05-10T23:42:07.327Z,3.70
2023-05-10T23:47:09.855Z,3.70
2023-05-10T23:52:12.417Z,3.70
2023-05-10T23:57:14.934Z,3.40
